Hlavní strana
METAR-TAF:

METAR-TAF

Letiště :

Port of Spain, Trinidad, Trinidad a Tobago

zeměpisná šířka: 10-37N, zeměpisná délka: 061-21W, výška: 12 m

Aktuální stav počasí

Zpráva byla vytvořena před 35 minutami, v 13:00 UTC
Východní vítr 12 kt
Teplota 29°C
Vlhkost vzduchu 70%
Tlak 1015 hPa
Viditelnost 10 km a více
Oblačno až skoro zataženo ve výšce 2000 ft

METAR: TTPP 231300Z 09012KT 9999 BKN020 29/23 Q1015 NOSIG

Čas: 09:35 (13:35 UTC)

Předpověď počasí

Zpráva byla vytvořena před 9 hodinami a 35 minutami, v 04:00 UTC
Předpověď platná od 23 v 06 UTC do 24 v 06 UTC
Východní vítr 5 kt
Viditelnost 10 km a více
Skoro jasno ve výšce 1800 ft
Změna
od 23 v 11 UTC do 23 v 13 UTC
Východní vítr 15 kt
Viditelnost 10 km a více
Polojasno ve výšce 2000 ft
Změna
mezi 09 a 00 UTC
Polojasno ve výšce 1800 ft

TAF: TTPP 230400Z 2306/2406 09005KT 9999 FEW018 BECMG 2311/2313 09015KT 9999 SCT020 BECMG 09005KT SCT018

Stav a předpovědi počasí z více než 4 000 letišť (zprávy METAR a TAF).

Červené a žluté tečky na mapě představují dostupné meteorologické stanice.

Když kurzor umístíte na tečku, zobrazí se název stanice.

Pak kliknutím zobrazíte stav a předpověď počasí.

Chcete-li změnit mapu, kliknutím na zelené tlačítko se znaménkem +mapu přiblížíte, kliknutím na zelené tlačítko se znaménkem – mapu oddálíte a kliknutím na zelené šipky přejdete na sousední mapy.


METAR-TAF: